createdAt,value
2018-12-18T07:41:41.575Z,38.90
2018-12-18T07:44:10.611Z,35.60
2018-12-18T07:46:38.839Z,35.23
2018-12-18T07:49:07.065Z,35.57
2018-12-18T07:51:39.052Z,34.83
2018-12-18T07:54:07.267Z,39.20
2018-12-18T07:56:35.503Z,40.50
2018-12-18T07:59:03.710Z,34.77
2018-12-18T08:01:32.026Z,38.63
2018-12-18T08:04:00.223Z,38.57
2018-12-18T08:06:28.459Z,34.60
2018-12-18T08:08:56.700Z,31.03
2018-12-18T08:11:24.928Z,34.57
2018-12-18T08:13:53.138Z,36.73
2018-12-18T08:16:21.373Z,35.50
2018-12-18T08:18:49.584Z,36.20
2018-12-18T08:21:18.081Z,35.40
2018-12-18T08:23:46.306Z,35.80
2018-12-18T08:26:14.512Z,34.40
2018-12-18T08:28:42.748Z,34.73
2018-12-18T08:31:10.964Z,38.70
2018-12-18T08:33:39.195Z,34.20
2018-12-18T08:36:07.484Z,37.33
2018-12-18T08:38:35.712Z,32.40
2018-12-18T08:41:04.080Z,36.67
2018-12-18T08:43:32.307Z,34.37
2018-12-18T08:46:00.599Z,34.33
2018-12-18T08:48:28.826Z,32.57
2018-12-18T08:50:57.088Z,36.70
2018-12-18T08:53:25.402Z,33.93
2018-12-18T08:55:53.691Z,33.10
2018-12-18T08:58:21.916Z,34.17
2018-12-18T09:00:50.135Z,32.90
2018-12-18T09:03:18.367Z,35.70
2018-12-18T09:05:46.578Z,32.03
2018-12-18T09:08:14.908Z,33.37
2018-12-18T09:10:43.199Z,35.43
2018-12-18T09:13:11.427Z,35.60
2018-12-18T09:15:44.983Z,35.40
2018-12-18T09:18:13.290Z,33.73
2018-12-18T09:20:41.504Z,33.93
2018-12-18T09:23:09.738Z,35.83
2018-12-18T09:25:37.957Z,35.47
2018-12-18T09:28:06.187Z,32.73
2018-12-18T09:30:35.581Z,35.03
2018-12-18T09:33:04.747Z,33.30
2018-12-18T09:35:33.043Z,33.50
2018-12-18T09:38:06.603Z,33.27
2018-12-18T09:41:40.456Z,34.70
2018-12-18T09:44:12.976Z,31.70
2018-12-18T09:46:41.182Z,35.27
2018-12-18T09:49:09.478Z,41.73
2018-12-18T09:51:37.765Z,37.57
2018-12-18T09:54:05.996Z,35.70
2018-12-18T09:56:38.454Z,40.73
2018-12-18T09:59:06.750Z,38.07
2018-12-18T10:01:34.957Z,38.60
2018-12-18T10:04:03.183Z,43.23
2018-12-18T10:06:31.471Z,40.63
2018-12-18T10:08:59.723Z,43.07
2018-12-18T10:11:27.932Z,39.40
2018-12-18T10:13:56.229Z,39.83
2018-12-18T10:16:24.507Z,40.93
2018-12-18T10:18:52.739Z,40.40
2018-12-18T10:21:20.946Z,46.93
2018-12-18T10:23:49.164Z,40.43
2018-12-18T10:26:17.451Z,35.60
2018-12-18T10:28:45.674Z,36.10
2018-12-18T10:31:13.963Z,41.33
2018-12-18T10:33:42.261Z,39.53
2018-12-18T10:36:10.467Z,40.60
2018-12-18T10:38:38.686Z,41.87
2018-12-18T10:41:06.976Z,40.03
2018-12-18T10:43:35.197Z,42.70
2018-12-18T10:46:03.565Z,43.03
2018-12-18T10:48:31.875Z,41.10
2018-12-18T10:51:00.264Z,42.83
2018-12-18T10:53:28.555Z,39.13
2018-12-18T10:55:56.930Z,39.93
2018-12-18T10:58:25.183Z,39.20
2018-12-18T11:00:58.631Z,38.40
2018-12-18T11:03:26.878Z,37.93
2018-12-18T11:05:55.096Z,40.33
2018-12-18T11:08:23.314Z,38.47
2018-12-18T11:10:51.547Z,42.93
2018-12-18T11:13:19.916Z,39.93
2018-12-18T11:15:48.230Z,37.93
2018-12-18T11:18:16.711Z,40.67
2018-12-18T11:20:44.943Z,37.50
2018-12-18T11:23:13.235Z,35.43
2018-12-18T11:25:41.454Z,38.67
2018-12-18T11:28:09.742Z,39.70
2018-12-18T11:30:37.959Z,34.70
2018-12-18T11:33:06.159Z,34.53
2018-12-18T11:35:34.382Z,40.00
2018-12-18T11:38:02.586Z,34.47
2018-12-18T11:40:30.890Z,37.67
2018-12-18T11:42:59.103Z,38.33
2018-12-18T11:45:27.326Z,39.13
2018-12-18T11:47:55.538Z,36.73
2018-12-18T11:50:23.761Z,33.93
2018-12-18T11:52:51.963Z,39.30
2018-12-18T11:55:20.181Z,35.60
2018-12-18T11:57:48.386Z,33.90
2018-12-18T12:00:17.595Z,46.80
2018-12-18T12:02:45.811Z,35.90
2018-12-18T12:05:14.118Z,34.23
2018-12-18T12:07:42.418Z,34.73
2018-12-18T12:10:10.649Z,35.70
2018-12-18T12:12:38.934Z,34.00
2018-12-18T12:15:07.248Z,40.17
2018-12-18T12:17:35.735Z,34.03
2018-12-18T12:20:04.125Z,41.20
2018-12-18T12:22:32.332Z,35.93
2018-12-18T12:25:00.570Z,31.67
2018-12-18T12:27:38.026Z,33.63
2018-12-18T12:30:08.125Z,36.53
2018-12-18T12:32:36.342Z,30.97
2018-12-18T12:35:05.445Z,35.53
2018-12-18T12:37:33.651Z,32.97
2018-12-18T12:40:01.884Z,31.67
2018-12-18T12:42:30.082Z,33.63
2018-12-18T12:44:58.315Z,32.97
2018-12-18T12:47:26.525Z,29.37
2018-12-18T12:49:54.750Z,37.93
2018-12-18T12:52:22.955Z,34.37
2018-12-18T12:54:51.170Z,32.63
2018-12-18T12:57:19.383Z,30.63
2018-12-18T12:59:47.618Z,34.13
2018-12-18T13:02:15.829Z,32.00
2018-12-18T13:04:44.115Z,31.67
2018-12-18T13:07:12.366Z,31.73
2018-12-18T13:09:40.575Z,29.50
2018-12-18T13:12:08.807Z,33.40
2018-12-18T13:14:37.011Z,36.80
2018-12-18T13:17:05.243Z,31.90
2018-12-18T13:19:33.442Z,31.57
2018-12-18T13:22:01.663Z,26.40
2018-12-18T13:24:29.870Z,34.30
2018-12-18T13:26:58.099Z,29.53
2018-12-18T13:29:26.391Z,33.10
2018-12-18T13:32:01.443Z,30.93
2018-12-18T13:34:29.650Z,29.80
2018-12-18T13:36:57.880Z,29.67
2018-12-18T13:39:26.084Z,30.53
2018-12-18T13:41:54.314Z,30.37
2018-12-18T13:44:22.520Z,30.87
2018-12-18T13:46:50.745Z,30.50
2018-12-18T13:49:18.963Z,32.40
2018-12-18T13:51:47.187Z,27.57
2018-12-18T13:54:15.393Z,26.90
2018-12-18T13:56:43.631Z,31.50
2018-12-18T13:59:11.833Z,30.60
2018-12-18T14:01:40.050Z,31.43
2018-12-18T14:04:08.246Z,29.07
2018-12-18T14:06:36.556Z,26.17
2018-12-18T14:09:07.972Z,32.40
2018-12-18T14:11:36.198Z,29.00
2018-12-18T14:14:04.578Z,25.20
2018-12-18T14:16:32.803Z,23.80
2018-12-18T14:19:01.102Z,29.67
2018-12-18T14:21:29.343Z,33.03
2018-12-18T14:23:57.564Z,28.33
2018-12-18T14:26:25.784Z,27.27
2018-12-18T14:28:54.027Z,27.23
2018-12-18T14:31:22.332Z,30.17
2018-12-18T14:33:50.542Z,25.80
2018-12-18T14:36:18.775Z,29.50
2018-12-18T14:38:46.988Z,28.03
2018-12-18T14:41:15.215Z,31.63
2018-12-18T14:43:43.420Z,23.73
2018-12-18T14:46:11.727Z,32.23
2018-12-18T14:48:39.938Z,24.50
2018-12-18T14:51:08.182Z,30.07
2018-12-18T14:53:36.397Z,21.90
2018-12-18T14:56:04.703Z,23.20
2018-12-18T14:58:32.916Z,27.23
2018-12-18T15:01:01.159Z,28.77
2018-12-18T15:03:29.384Z,29.57
2018-12-18T15:05:57.598Z,29.73
2018-12-18T15:08:25.927Z,24.23
2018-12-18T15:10:54.131Z,27.17
2018-12-18T15:13:22.367Z,32.47
2018-12-18T15:15:50.653Z,27.23
2018-12-18T15:18:18.879Z,26.53
2018-12-18T15:20:47.082Z,27.90
2018-12-18T15:23:15.323Z,28.47
2018-12-18T15:25:43.527Z,30.20
2018-12-18T15:28:11.762Z,32.97
2018-12-18T15:30:40.063Z,28.87
2018-12-18T15:33:08.287Z,33.57
2018-12-18T15:35:36.863Z,45.87
2018-12-18T15:38:05.109Z,46.43
2018-12-18T15:40:33.513Z,60.80
2018-12-18T15:43:01.743Z,66.90
2018-12-18T15:45:29.971Z,59.90
2018-12-18T15:47:59.141Z,55.47
2018-12-18T15:50:27.432Z,47.13
2018-12-18T15:52:55.738Z,45.40
2018-12-18T15:55:23.949Z,37.87
2018-12-18T15:57:52.211Z,33.47
2018-12-18T16:00:20.504Z,27.20
2018-12-18T16:02:48.759Z,32.80
2018-12-18T16:05:17.048Z,29.30
2018-12-18T16:07:45.331Z,31.93
2018-12-18T16:10:13.541Z,26.53
2018-12-18T16:12:41.768Z,30.27
2018-12-18T16:15:09.986Z,27.13
2018-12-18T16:17:38.227Z,26.83
2018-12-18T16:20:06.931Z,29.30
2018-12-18T16:22:35.146Z,30.50
2018-12-18T16:25:03.546Z,28.00
2018-12-18T16:27:31.754Z,35.67
2018-12-18T16:30:00.067Z,28.97
2018-12-18T16:32:28.288Z,30.60
2018-12-18T16:34:56.522Z,35.00
2018-12-18T16:37:24.735Z,30.47
2018-12-18T16:39:52.959Z,25.90
2018-12-18T16:42:21.174Z,27.33
2018-12-18T16:44:49.407Z,30.60
2018-12-18T16:47:17.663Z,31.60
2018-12-18T16:49:45.904Z,29.67
2018-12-18T16:52:14.127Z,31.97
2018-12-18T16:54:42.452Z,31.40
2018-12-18T16:57:13.299Z,28.30
2018-12-18T16:59:40.927Z,29.37
2018-12-18T17:02:09.147Z,64.53
2018-12-18T17:04:43.843Z,37.23
2018-12-18T17:07:12.075Z,51.17
2018-12-18T17:09:40.302Z,48.33
2018-12-18T17:12:08.509Z,44.33
2018-12-18T17:14:36.743Z,44.43
2018-12-18T17:17:04.951Z,49.20
2018-12-18T17:19:33.187Z,39.43
2018-12-18T17:22:01.406Z,39.47
2018-12-18T17:24:29.639Z,41.67
2018-12-18T17:26:57.855Z,32.97
2018-12-18T17:29:26.086Z,34.43
2018-12-18T17:31:54.302Z,64.03
2018-12-18T17:34:22.585Z,51.00
2018-12-18T17:36:50.800Z,59.37
2018-12-18T17:39:19.009Z,61.47
2018-12-18T17:41:47.239Z,73.77
2018-12-18T17:44:15.456Z,77.40
2018-12-18T17:46:43.691Z,57.07
2018-12-18T17:49:11.980Z,64.00
2018-12-18T17:51:40.218Z,61.50
2018-12-18T17:54:08.419Z,63.33
2018-12-18T17:56:36.722Z,67.63
2018-12-18T17:59:05.017Z,58.40
2018-12-18T18:01:33.242Z,59.67
2018-12-18T18:04:01.457Z,53.97
2018-12-18T18:06:29.699Z,45.53
2018-12-18T18:08:57.935Z,53.27
2018-12-18T18:11:26.246Z,44.93
2018-12-18T18:13:54.470Z,41.20
2018-12-18T18:16:22.783Z,43.13
2018-12-18T18:18:51.019Z,43.02
2018-12-18T18:21:19.252Z,34.00
2018-12-18T18:23:47.558Z,38.33
2018-12-18T18:26:15.975Z,39.60
2018-12-18T18:28:44.186Z,39.07
2018-12-18T18:31:12.418Z,41.40
2018-12-18T18:33:40.630Z,34.03
2018-12-18T18:36:08.870Z,32.30
2018-12-18T18:38:37.083Z,36.73
2018-12-18T18:41:05.323Z,38.27
2018-12-18T18:43:33.532Z,37.60
2018-12-18T18:46:01.770Z,35.90
2018-12-18T18:48:30.010Z,37.78
2018-12-18T18:50:58.247Z,33.90
2018-12-18T18:53:26.477Z,29.20
2018-12-18T18:55:54.707Z,34.40
2018-12-18T18:58:22.932Z,28.02
2018-12-18T19:00:51.191Z,30.85
2018-12-18T19:03:19.492Z,28.33
2018-12-18T19:05:47.711Z,35.38
2018-12-18T19:08:15.989Z,35.00
2018-12-18T19:10:44.329Z,33.23
2018-12-18T19:13:12.570Z,36.03
2018-12-18T19:15:40.796Z,30.48
2018-12-18T19:18:09.038Z,35.03
2018-12-18T19:20:37.274Z,32.67
2018-12-18T19:23:05.718Z,33.60
2018-12-18T19:25:33.950Z,38.63
2018-12-18T19:28:02.187Z,35.43
2018-12-18T19:30:30.416Z,34.92
2018-12-18T19:32:58.731Z,34.63
2018-12-18T19:35:26.949Z,36.55
2018-12-18T19:37:55.178Z,34.05
2018-12-18T19:40:23.550Z,36.35
2018-12-18T19:42:51.797Z,34.83
2018-12-18T19:45:20.033Z,33.75
2018-12-18T19:47:48.266Z,42.75
2018-12-18T19:50:16.484Z,43.13
2018-12-18T19:52:44.814Z,43.55
2018-12-18T19:55:13.187Z,36.58
2018-12-18T19:57:41.439Z,35.30
2018-12-18T20:00:10.054Z,58.02
2018-12-18T20:02:38.391Z,54.08
2018-12-18T20:05:06.696Z,45.30
2018-12-18T20:07:34.935Z,44.93
2018-12-18T20:10:03.346Z,62.93
2018-12-18T20:12:31.643Z,53.23
2018-12-18T20:14:59.887Z,56.35
2018-12-18T20:17:28.112Z,54.65
2018-12-18T20:19:56.351Z,42.05
2018-12-18T20:22:24.943Z,41.03
2018-12-18T20:24:53.179Z,40.28
2018-12-18T20:27:21.399Z,38.40
2018-12-18T20:29:50.026Z,39.78
2018-12-18T20:32:18.251Z,43.30
2018-12-18T20:34:46.571Z,47.17
2018-12-18T20:37:18.261Z,64.90
2018-12-18T20:39:45.143Z,67.37
2018-12-18T20:42:13.362Z,59.75
2018-12-18T20:44:41.607Z,59.30
2018-12-18T20:47:09.827Z,57.48
2018-12-18T20:49:38.080Z,51.88
2018-12-18T20:52:06.353Z,50.75
2018-12-18T20:54:34.743Z,46.65
2018-12-18T20:57:03.049Z,47.67
2018-12-18T20:59:31.370Z,49.73
2018-12-18T21:01:59.592Z,47.73
2018-12-18T21:04:27.947Z,50.00
2018-12-18T21:06:56.444Z,43.52
2018-12-18T21:09:24.958Z,51.05
2018-12-18T21:11:53.443Z,47.93
2018-12-18T21:14:22.001Z,46.10
2018-12-18T21:16:56.759Z,46.18
2018-12-18T21:19:26.551Z,46.25
2018-12-18T21:21:55.055Z,49.48
2018-12-18T21:24:23.679Z,43.17
2018-12-18T21:26:52.174Z,42.70
